sensor_id;sensor_type;location;lat;lon;timestamp;pressure;altitude;pressure_sealevel;temperature;humidity
59859;BME280;45734;53.648;9.566;2023-04-07T00:03:59;96988.78;;;-145.06;56.87
59859;BME280;45734;53.648;9.566;2023-04-07T00:09:00;96992.88;;;-145.06;56.71
59859;BME280;45734;53.648;9.566;2023-04-07T00:14:00;97025.63;;;-145.06;56.89
59859;BME280;45734;53.648;9.566;2023-04-07T00:19:00;96994.94;;;-145.06;57.27
59859;BME280;45734;53.648;9.566;2023-04-07T00:24:01;97025.63;;;-145.06;57.36
59859;BME280;45734;53.648;9.566;2023-04-07T00:29:01;97025.63;;;-145.06;57.98
59859;BME280;45734;53.648;9.566;2023-04-07T00:34:01;97005.16;;;-145.06;57.08
59859;BME280;45734;53.648;9.566;2023-04-07T00:39:02;97015.41;;;-145.06;56.96
59859;BME280;45734;53.648;9.566;2023-04-07T00:44:02;97017.44;;;-145.06;57.76
59859;BME280;45734;53.648;9.566;2023-04-07T00:49:03;97003.13;;;-145.06;57.51
59859;BME280;45734;53.648;9.566;2023-04-07T00:54:03;97005.16;;;-145.06;57.54
59859;BME280;45734;53.648;9.566;2023-04-07T00:59:04;96992.88;;;-145.06;56.65
59859;BME280;45734;53.648;9.566;2023-04-07T01:04:08;96943.75;;;-145.06;57.10
59859;BME280;45734;53.648;9.566;2023-04-07T01:09:24;97015.41;;;-145.06;57.87
59859;BME280;45734;53.648;9.566;2023-04-07T01:14:32;96996.97;;;-145.06;57.61
59859;BME280;45734;53.648;9.566;2023-04-07T01:19:38;97046.09;;;-145.06;58.08
59859;BME280;45734;53.648;9.566;2023-04-07T01:30:00;97013.34;;;-145.06;57.89
59859;BME280;45734;53.648;9.566;2023-04-07T01:35:01;96992.88;;;-145.06;57.80
59859;BME280;45734;53.648;9.566;2023-04-07T01:40:06;96949.88;;;-145.06;58.12
59859;BME280;45734;53.648;9.566;2023-04-07T01:45:07;97011.31;;;-145.06;58.41
59859;BME280;45734;53.648;9.566;2023-04-07T01:50:10;97064.53;;;-145.06;59.52
59859;BME280;45734;53.648;9.566;2023-04-07T01:55:10;97029.72;;;-145.06;61.14
59859;BME280;45734;53.648;9.566;2023-04-07T02:00:11;97082.94;;;-145.06;61.14
59859;BME280;45734;53.648;9.566;2023-04-07T02:05:14;97080.91;;;-145.06;63.14
59859;BME280;45734;53.648;9.566;2023-04-07T02:10:16;97136.19;;;-145.06;69.22
59859;BME280;45734;53.648;9.566;2023-04-07T02:15:20;97181.22;;;-145.06;78.43
59859;BME280;45734;53.648;9.566;2023-04-07T02:20:21;97205.78;;;-145.06;82.15
59859;BME280;45734;53.648;9.566;2023-04-07T02:25:25;97213.97;;;-145.06;83.40
59859;BME280;45734;53.648;9.566;2023-04-07T02:30:26;97244.69;;;-145.06;86.31
59859;BME280;45734;53.648;9.566;2023-04-07T02:35:27;97220.13;;;-145.06;87.50
59859;BME280;45734;53.648;9.566;2023-04-07T02:40:27;97267.19;;;-145.06;88.94
59859;BME280;45734;53.648;9.566;2023-04-07T02:45:27;97259.00;;;-145.06;87.88
59859;BME280;45734;53.648;9.566;2023-04-07T02:50:28;97271.28;;;-145.06;88.94
59859;BME280;45734;53.648;9.566;2023-04-07T02:55:28;97234.44;;;-145.06;87.49
59859;BME280;45734;53.648;9.566;2023-04-07T03:00:28;97281.53;;;-145.06;89.51
59859;BME280;45734;53.648;9.566;2023-04-07T03:05:29;97242.63;;;-145.06;87.89
59859;BME280;45734;53.648;9.566;2023-04-07T03:10:29;97254.91;;;-145.06;87.47
59859;BME280;45734;53.648;9.566;2023-04-07T03:15:29;97250.81;;;-145.06;88.99
59859;BME280;45734;53.648;9.566;2023-04-07T03:20:30;97265.16;;;-145.06;88.46
59859;BME280;45734;53.648;9.566;2023-04-07T03:25:30;97269.25;;;-145.06;90.16
59859;BME280;45734;53.648;9.566;2023-04-07T03:30:31;97271.28;;;-145.06;91.11
59859;BME280;45734;53.648;9.566;2023-04-07T03:35:32;97324.53;;;-145.06;91.97
59859;BME280;45734;53.648;9.566;2023-04-07T03:40:32;97254.91;;;-145.06;91.24
59859;BME280;45734;53.648;9.566;2023-04-07T03:45:34;97259.00;;;-145.06;91.24
59859;BME280;45734;53.648;9.566;2023-04-07T03:50:35;97246.72;;;-145.06;90.47
59859;BME280;45734;53.648;9.566;2023-04-07T03:55:36;97265.16;;;-145.06;90.94
59859;BME280;45734;53.648;9.566;2023-04-07T04:00:36;97244.69;;;-145.06;90.38
59859;BME280;45734;53.648;9.566;2023-04-07T04:05:36;97238.53;;;-145.06;90.13
59859;BME280;45734;53.648;9.566;2023-04-07T04:10:37;97330.66;;;-145.06;92.30
59859;BME280;45734;53.648;9.566;2023-04-07T04:15:37;97291.75;;;-145.06;93.21
59859;BME280;45734;53.648;9.566;2023-04-07T04:20:37;97281.53;;;-145.06;93.25
59859;BME280;45734;53.648;9.566;2023-04-07T04:25:38;97281.53;;;-145.06;92.63
59859;BME280;45734;53.648;9.566;2023-04-07T04:30:42;97259.00;;;-145.06;92.94
59859;BME280;45734;53.648;9.566;2023-04-07T04:35:44;97267.19;;;-145.06;93.44
59859;BME280;45734;53.648;9.566;2023-04-07T04:40:44;97191.44;;;-145.06;94.44
59859;BME280;45734;53.648;9.566;2023-04-07T04:45:45;96888.47;;;-145.06;93.04
59859;BME280;45734;53.648;9.566;2023-04-07T04:50:45;97031.78;;;-145.06;92.17
59859;BME280;45734;53.648;9.566;2023-04-07T04:55:45;96084.06;;;-145.06;91.35
59859;BME280;45734;53.648;9.566;2023-04-07T05:00:53;95488.56;;;-145.06;89.19
59859;BME280;45734;53.648;9.566;2023-04-07T05:05:57;95320.75;;;-145.06;83.32
59859;BME280;45734;53.648;9.566;2023-04-07T05:10:58;95173.44;;;-145.06;73.61
59859;BME280;45734;53.648;9.566;2023-04-07T05:15:58;95032.25;;;-145.06;65.76
59859;BME280;45734;53.648;9.566;2023-04-07T05:20:58;94923.81;;;-145.06;61.65
59859;BME280;45734;53.648;9.566;2023-04-07T05:26:01;94846.06;;;-145.06;57.84
59859;BME280;45734;53.648;9.566;2023-04-07T05:31:01;94801.06;;;-145.06;55.77
59859;BME280;45734;53.648;9.566;2023-04-07T05:36:01;94700.81;;;-145.06;53.82
59859;BME280;45734;53.648;9.566;2023-04-07T05:41:02;94610.78;;;-145.06;52.25
59859;BME280;45734;53.648;9.566;2023-04-07T05:46:02;94721.25;;;-145.06;52.81
59859;BME280;45734;53.648;9.566;2023-04-07T05:51:02;94897.22;;;-145.06;51.85
59859;BME280;45734;53.648;9.566;2023-04-07T05:56:03;94668.06;;;-145.06;51.96
59859;BME280;45734;53.648;9.566;2023-04-07T06:01:03;94471.66;;;-145.06;49.63
59859;BME280;45734;53.648;9.566;2023-04-07T06:06:03;94418.47;;;-145.06;48.30
59859;BME280;45734;53.648;9.566;2023-04-07T06:11:04;94379.59;;;-145.06;45.96
59859;BME280;45734;53.648;9.566;2023-04-07T06:16:04;94344.84;;;-145.06;45.56
59859;BME280;45734;53.648;9.566;2023-04-07T06:21:05;94293.69;;;-145.06;44.46
59859;BME280;45734;53.648;9.566;2023-04-07T06:26:09;94263.00;;;-145.06;44.27
59859;BME280;45734;53.648;9.566;2023-04-07T06:31:11;94205.72;;;-145.06;42.94
59859;BME280;45734;53.648;9.566;2023-04-07T06:36:11;94158.69;;;-145.06;41.16
59859;BME280;45734;53.648;9.566;2023-04-07T06:41:11;94152.53;;;-145.06;40.34
59859;BME280;45734;53.648;9.566;2023-04-07T06:46:16;94087.06;;;-145.06;39.95
59859;BME280;45734;53.648;9.566;2023-04-07T06:51:16;94035.94;;;-145.06;39.48
59859;BME280;45734;53.648;9.566;2023-04-07T06:56:17;94019.56;;;-145.06;39.56
59859;BME280;45734;53.648;9.566;2023-04-07T07:01:17;94048.22;;;-145.06;39.78
59859;BME280;45734;53.648;9.566;2023-04-07T07:06:17;94046.16;;;-145.06;39.02
59859;BME280;45734;53.648;9.566;2023-04-07T07:11:18;94035.94;;;-145.06;39.10
59859;BME280;45734;53.648;9.566;2023-04-07T07:16:18;94017.53;;;-145.06;39.34
59859;BME280;45734;53.648;9.566;2023-04-07T07:21:19;93984.81;;;-145.06;38.82
59859;BME280;45734;53.648;9.566;2023-04-07T07:26:19;94033.91;;;-145.06;37.91
59859;BME280;45734;53.648;9.566;2023-04-07T07:31:20;94316.19;;;-145.06;39.06
59859;BME280;45734;53.648;9.566;2023-04-07T07:36:20;94087.06;;;-145.06;39.71
59859;BME280;45734;53.648;9.566;2023-04-07T07:41:20;94037.97;;;-145.06;38.74
59859;BME280;45734;53.648;9.566;2023-04-07T07:46:21;94021.63;;;-145.06;39.00
59859;BME280;45734;53.648;9.566;2023-04-07T07:51:23;94031.84;;;-145.06;37.87
59859;BME280;45734;53.648;9.566;2023-04-07T07:56:23;93997.06;;;-145.06;37.53
59859;BME280;45734;53.648;9.566;2023-04-07T08:01:24;94068.66;;;-145.06;38.35
59859;BME280;45734;53.648;9.566;2023-04-07T08:06:24;94074.81;;;-145.06;37.62
59859;BME280;45734;53.648;9.566;2023-04-07T08:11:26;94166.84;;;-145.06;39.29
59859;BME280;45734;53.648;9.566;2023-04-07T08:16:26;94105.50;;;-145.06;37.28
59859;BME280;45734;53.648;9.566;2023-04-07T08:21:27;94109.56;;;-145.06;38.36
59859;BME280;45734;53.648;9.566;2023-04-07T08:26:27;94117.75;;;-145.06;37.34
59859;BME280;45734;53.648;9.566;2023-04-07T08:31:27;94121.84;;;-145.06;37.52
59859;BME280;45734;53.648;9.566;2023-04-07T08:36:28;94099.34;;;-145.06;36.40
59859;BME280;45734;53.648;9.566;2023-04-07T08:41:36;94023.66;;;-145.06;35.39
59859;BME280;45734;53.648;9.566;2023-04-07T08:46:38;94005.25;;;-145.06;34.97
59859;BME280;45734;53.648;9.566;2023-04-07T08:51:45;94168.91;;;-145.06;35.84
59859;BME280;45734;53.648;9.566;2023-04-07T08:56:50;94052.31;;;-145.06;37.05
59859;BME280;45734;53.648;9.566;2023-04-07T09:01:51;94083.00;;;-145.06;36.10
59859;BME280;45734;53.648;9.566;2023-04-07T09:06:52;94154.59;;;-145.06;36.38
59859;BME280;45734;53.648;9.566;2023-04-07T09:11:52;94152.53;;;-145.06;38.09
59859;BME280;45734;53.648;9.566;2023-04-07T09:16:53;94332.56;;;-145.06;37.78
59859;BME280;45734;53.648;9.566;2023-04-07T09:22:01;94596.47;;;-145.06;38.69
59859;BME280;45734;53.648;9.566;2023-04-07T09:27:14;94557.59;;;-145.06;39.48
59859;BME280;45734;53.648;9.566;2023-04-07T09:32:35;94618.97;;;-145.06;38.53
59859;BME280;45734;53.648;9.566;2023-04-07T09:37:40;94516.69;;;-145.06;38.84
59859;BME280;45734;53.648;9.566;2023-04-07T09:42:45;94438.94;;;-145.06;37.84
59859;BME280;45734;53.648;9.566;2023-04-07T09:47:46;94426.66;;;-145.06;37.78
59859;BME280;45734;53.648;9.566;2023-04-07T09:52:51;94402.13;;;-145.06;37.40
59859;BME280;45734;53.648;9.566;2023-04-07T09:57:52;94385.75;;;-145.06;38.61
59859;BME280;45734;53.648;9.566;2023-04-07T10:02:54;94320.28;;;-145.06;37.87
59859;BME280;45734;53.648;9.566;2023-04-07T10:07:55;94379.59;;;-145.06;36.93
59859;BME280;45734;53.648;9.566;2023-04-07T10:13:03;94328.47;;;-145.06;38.05
59859;BME280;45734;53.648;9.566;2023-04-07T10:18:07;94576.00;;;-145.06;36.93
59859;BME280;45734;53.648;9.566;2023-04-07T10:23:31;94457.34;;;-145.06;37.00
59859;BME280;45734;53.648;9.566;2023-04-07T10:28:37;94481.91;;;-145.06;37.01
59859;BME280;45734;53.648;9.566;2023-04-07T10:33:50;94616.91;;;-145.06;36.79
59859;BME280;45734;53.648;9.566;2023-04-07T10:44:08;94445.06;;;-145.06;36.28
59859;BME280;45734;53.648;9.566;2023-04-07T10:49:09;94477.81;;;-145.06;36.84
59859;BME280;45734;53.648;9.566;2023-04-07T10:54:20;94506.44;;;-145.06;37.65
59859;BME280;45734;53.648;9.566;2023-04-07T10:59:21;94518.72;;;-145.06;35.40
59859;BME280;45734;53.648;9.566;2023-04-07T11:04:35;94526.91;;;-145.06;37.34
59859;BME280;45734;53.648;9.566;2023-04-07T11:09:36;94492.13;;;-145.06;35.14
59859;BME280;45734;53.648;9.566;2023-04-07T11:14:36;94398.03;;;-145.06;34.36
59859;BME280;45734;53.648;9.566;2023-04-07T11:19:50;94586.25;;;-145.06;35.60
59859;BME280;45734;53.648;9.566;2023-04-07T11:24:51;94606.69;;;-145.06;39.14
59859;BME280;45734;53.648;9.566;2023-04-07T11:29:51;94580.09;;;-145.06;38.72
59859;BME280;45734;53.648;9.566;2023-04-07T11:34:51;94651.69;;;-145.06;39.19
59859;BME280;45734;53.648;9.566;2023-04-07T11:39:57;94639.44;;;-145.06;39.03
59859;BME280;45734;53.648;9.566;2023-04-07T11:44:57;94670.13;;;-145.06;37.63
59859;BME280;45734;53.648;9.566;2023-04-07T11:49:57;94645.56;;;-145.06;38.42
59859;BME280;45734;53.648;9.566;2023-04-07T11:54:58;94721.25;;;-145.06;38.61
59859;BME280;45734;53.648;9.566;2023-04-07T12:00:06;94733.53;;;-145.06;40.00
59859;BME280;45734;53.648;9.566;2023-04-07T12:05:07;94711.03;;;-145.06;38.55
59859;BME280;45734;53.648;9.566;2023-04-07T12:10:19;94762.19;;;-145.06;39.46
59859;BME280;45734;53.648;9.566;2023-04-07T12:15:20;94835.84;;;-145.06;41.81
59859;BME280;45734;53.648;9.566;2023-04-07T12:20:20;94737.63;;;-145.06;39.04
59859;BME280;45734;53.648;9.566;2023-04-07T12:25:26;94803.09;;;-145.06;40.44
59859;BME280;45734;53.648;9.566;2023-04-07T12:30:27;94958.59;;;-145.06;43.23
59859;BME280;45734;53.648;9.566;2023-04-07T12:35:27;94964.75;;;-145.06;43.04
59859;BME280;45734;53.648;9.566;2023-04-07T12:40:28;94878.81;;;-145.06;42.28
59859;BME280;45734;53.648;9.566;2023-04-07T12:45:28;94854.25;;;-145.06;41.24
59859;BME280;45734;53.648;9.566;2023-04-07T12:50:30;94864.47;;;-145.06;42.39
59859;BME280;45734;53.648;9.566;2023-04-07T12:55:31;94893.13;;;-145.06;43.03
59859;BME280;45734;53.648;9.566;2023-04-07T13:00:32;94917.69;;;-145.06;41.25
59859;BME280;45734;53.648;9.566;2023-04-07T13:05:32;94880.84;;;-145.06;41.74
59859;BME280;45734;53.648;9.566;2023-04-07T13:10:33;94985.19;;;-145.06;41.78
59859;BME280;45734;53.648;9.566;2023-04-07T13:15:33;94893.13;;;-145.06;41.61
59859;BME280;45734;53.648;9.566;2023-04-07T13:20:34;94938.13;;;-145.06;42.44
59859;BME280;45734;53.648;9.566;2023-04-07T13:25:34;94901.31;;;-145.06;42.16
59859;BME280;45734;53.648;9.566;2023-04-07T13:30:34;94866.53;;;-145.06;39.90
59859;BME280;45734;53.648;9.566;2023-04-07T13:35:35;94831.75;;;-145.06;41.26
59859;BME280;45734;53.648;9.566;2023-04-07T13:40:35;94970.88;;;-145.06;42.76
59859;BME280;45734;53.648;9.566;2023-04-07T13:45:35;94921.78;;;-145.06;42.85
59859;BME280;45734;53.648;9.566;2023-04-07T13:50:37;94921.78;;;-145.06;42.75
59859;BME280;45734;53.648;9.566;2023-04-07T13:55:37;94915.63;;;-145.06;42.58
59859;BME280;45734;53.648;9.566;2023-04-07T14:00:38;94929.94;;;-145.06;41.26
59859;BME280;45734;53.648;9.566;2023-04-07T14:05:44;94950.41;;;-145.06;41.30
59859;BME280;45734;53.648;9.566;2023-04-07T14:10:47;94897.22;;;-145.06;44.07
59859;BME280;45734;53.648;9.566;2023-04-07T14:15:48;94946.31;;;-145.06;43.96
59859;BME280;45734;53.648;9.566;2023-04-07T14:20:49;94974.97;;;-145.06;42.47
59859;BME280;45734;53.648;9.566;2023-04-07T14:25:49;94989.28;;;-145.06;43.80
59859;BME280;45734;53.648;9.566;2023-04-07T14:30:50;95060.91;;;-145.06;42.81
59859;BME280;45734;53.648;9.566;2023-04-07T14:35:50;95054.75;;;-145.06;45.24
59859;BME280;45734;53.648;9.566;2023-04-07T14:40:51;95075.22;;;-145.06;45.94
59859;BME280;45734;53.648;9.566;2023-04-07T14:45:52;95036.34;;;-145.06;46.36
59859;BME280;45734;53.648;9.566;2023-04-07T14:50:52;95079.31;;;-145.06;47.26
59859;BME280;45734;53.648;9.566;2023-04-07T14:55:52;95146.84;;;-145.06;48.99
59859;BME280;45734;53.648;9.566;2023-04-07T15:00:56;95167.31;;;-145.06;52.03
59859;BME280;45734;53.648;9.566;2023-04-07T15:05:56;95255.28;;;-145.06;53.13
59859;BME280;45734;53.648;9.566;2023-04-07T15:10:57;95253.25;;;-145.06;53.96
59859;BME280;45734;53.648;9.566;2023-04-07T15:16:13;95271.66;;;-145.06;54.62
59859;BME280;45734;53.648;9.566;2023-04-07T15:21:14;95224.59;;;-145.06;54.46
59859;BME280;45734;53.648;9.566;2023-04-07T15:26:15;95306.44;;;-145.06;57.76
59859;BME280;45734;53.648;9.566;2023-04-07T15:31:15;95285.97;;;-145.06;59.79
59859;BME280;45734;53.648;9.566;2023-04-07T15:36:15;95265.50;;;-145.06;62.81
59859;BME280;45734;53.648;9.566;2023-04-07T15:41:16;95238.91;;;-145.06;63.60
59859;BME280;45734;53.648;9.566;2023-04-07T15:46:17;95263.47;;;-145.06;66.17
59859;BME280;45734;53.648;9.566;2023-04-07T15:51:17;95175.47;;;-145.06;67.95
59859;BME280;45734;53.648;9.566;2023-04-07T15:56:18;95335.09;;;-145.06;71.75
59859;BME280;45734;53.648;9.566;2023-04-07T16:01:18;95472.19;;;-145.06;73.37
59859;BME280;45734;53.648;9.566;2023-04-07T16:06:19;95376.00;;;-145.06;75.55
59859;BME280;45734;53.648;9.566;2023-04-07T16:11:19;95302.34;;;-145.06;78.46
59859;BME280;45734;53.648;9.566;2023-04-07T16:16:20;95308.50;;;-145.06;75.17
59859;BME280;45734;53.648;9.566;2023-04-07T16:21:21;95351.47;;;-145.06;80.76
59859;BME280;45734;53.648;9.566;2023-04-07T16:26:21;95382.16;;;-145.06;79.85
59859;BME280;45734;53.648;9.566;2023-04-07T16:31:21;95447.63;;;-145.06;84.74
59859;BME280;45734;53.648;9.566;2023-04-07T16:36:22;95607.25;;;-145.06;86.61
59859;BME280;45734;53.648;9.566;2023-04-07T16:41:22;95699.34;;;-145.06;96.59
59859;BME280;45734;53.648;9.566;2023-04-07T16:46:22;95592.91;;;-145.06;100.00
59859;BME280;45734;53.648;9.566;2023-04-07T16:51:26;95601.09;;;-145.06;100.00
59859;BME280;45734;53.648;9.566;2023-04-07T16:56:27;95715.72;;;-145.06;100.00
59859;BME280;45734;53.648;9.566;2023-04-07T17:01:27;95777.09;;;-145.06;100.00
59859;BME280;45734;53.648;9.566;2023-04-07T17:06:29;95834.41;;;-145.06;100.00
59859;BME280;45734;53.648;9.566;2023-04-07T17:11:29;95795.53;;;-145.06;100.00
59859;BME280;45734;53.648;9.566;2023-04-07T17:16:29;95959.25;;;-145.06;100.00
59859;BME280;45734;53.648;9.566;2023-04-07T17:21:31;96227.34;;;-145.06;100.00
59859;BME280;45734;53.648;9.566;2023-04-07T17:26:31;96933.50;;;-145.06;100.00
59859;BME280;45734;53.648;9.566;2023-04-07T17:31:32;96816.84;;;-145.06;100.00
59859;BME280;45734;53.648;9.566;2023-04-07T17:36:39;96806.59;;;-145.06;100.00
59859;BME280;45734;53.648;9.566;2023-04-07T17:41:40;97109.56;;;-145.06;100.00
59859;BME280;45734;53.648;9.566;2023-04-07T17:46:44;97066.56;;;-145.06;100.00
59859;BME280;45734;53.648;9.566;2023-04-07T17:51:45;97242.63;;;-145.06;100.00
59859;BME280;45734;53.648;9.566;2023-04-07T17:56:45;97128.00;;;-145.06;100.00
59859;BME280;45734;53.648;9.566;2023-04-07T18:02:03;97205.78;;;-145.06;100.00
59859;BME280;45734;53.648;9.566;2023-04-07T18:07:08;97345.00;;;-145.06;100.00
59859;BME280;45734;53.648;9.566;2023-04-07T18:12:08;97433.03;;;-145.06;100.00
59859;BME280;45734;53.648;9.566;2023-04-07T18:17:09;97455.53;;;-145.06;100.00
59859;BME280;45734;53.648;9.566;2023-04-07T18:22:12;97516.97;;;-145.06;100.00
59859;BME280;45734;53.648;9.566;2023-04-07T18:27:15;97514.91;;;-145.06;100.00
59859;BME280;45734;53.648;9.566;2023-04-07T18:32:15;97512.88;;;-145.06;100.00
59859;BME280;45734;53.648;9.566;2023-04-07T18:37:15;97488.31;;;-145.06;100.00
59859;BME280;45734;53.648;9.566;2023-04-07T18:42:16;97570.19;;;-145.06;100.00
59859;BME280;45734;53.648;9.566;2023-04-07T18:47:16;97537.44;;;-145.06;100.00
59859;BME280;45734;53.648;9.566;2023-04-07T18:52:17;97570.19;;;-145.06;100.00
59859;BME280;45734;53.648;9.566;2023-04-07T18:57:17;97582.47;;;-145.06;100.00
59859;BME280;45734;53.648;9.566;2023-04-07T19:02:18;97588.63;;;-145.06;100.00
59859;BME280;45734;53.648;9.566;2023-04-07T19:07:18;97562.00;;;-145.06;100.00
59859;BME280;45734;53.648;9.566;2023-04-07T19:12:19;97611.16;;;-145.06;100.00
59859;BME280;45734;53.648;9.566;2023-04-07T19:17:19;97643.91;;;-145.06;100.00
59859;BME280;45734;53.648;9.566;2023-04-07T19:22:22;97627.53;;;-145.06;100.00
59859;BME280;45734;53.648;9.566;2023-04-07T19:27:23;97686.91;;;-145.06;100.00
59859;BME280;45734;53.648;9.566;2023-04-07T19:32:32;97654.13;;;-145.06;100.00
59859;BME280;45734;53.648;9.566;2023-04-07T19:37:33;97676.66;;;-145.06;100.00
59859;BME280;45734;53.648;9.566;2023-04-07T19:42:34;97680.75;;;-145.06;100.00
59859;BME280;45734;53.648;9.566;2023-04-07T19:47:35;97676.66;;;-145.06;100.00
59859;BME280;45734;53.648;9.566;2023-04-07T19:52:36;97662.34;;;-145.06;100.00
59859;BME280;45734;53.648;9.566;2023-04-07T19:57:37;97684.84;;;-145.06;100.00
59859;BME280;45734;53.648;9.566;2023-04-07T20:02:39;97627.53;;;-145.06;100.00
59859;BME280;45734;53.648;9.566;2023-04-07T20:07:39;97697.13;;;-145.06;100.00
59859;BME280;45734;53.648;9.566;2023-04-07T20:12:40;97645.94;;;-145.06;100.00
59859;BME280;45734;53.648;9.566;2023-04-07T20:17:40;97656.19;;;-145.06;100.00
59859;BME280;45734;53.648;9.566;2023-04-07T20:22:40;97641.84;;;-145.06;100.00
59859;BME280;45734;53.648;9.566;2023-04-07T20:27:41;97674.63;;;-145.06;100.00
59859;BME280;45734;53.648;9.566;2023-04-07T20:32:44;97652.09;;;-145.06;100.00
59859;BME280;45734;53.648;9.566;2023-04-07T20:37:45;97621.38;;;-145.06;100.00
59859;BME280;45734;53.648;9.566;2023-04-07T20:42:46;97650.03;;;-145.06;100.00
59859;BME280;45734;53.648;9.566;2023-04-07T20:47:46;97588.63;;;-145.06;100.00
59859;BME280;45734;53.648;9.566;2023-04-07T20:52:46;97631.63;;;-145.06;100.00
59859;BME280;45734;53.648;9.566;2023-04-07T20:57:47;97602.94;;;-145.06;100.00
59859;BME280;45734;53.648;9.566;2023-04-07T21:02:47;97621.38;;;-145.06;100.00
59859;BME280;45734;53.648;9.566;2023-04-07T21:07:48;97666.41;;;-145.06;100.00
59859;BME280;45734;53.648;9.566;2023-04-07T21:12:48;97664.38;;;-145.06;100.00
59859;BME280;45734;53.648;9.566;2023-04-07T21:17:48;97680.75;;;-145.06;100.00
59859;BME280;45734;53.648;9.566;2023-04-07T21:22:48;97705.31;;;-145.06;100.00
59859;BME280;45734;53.648;9.566;2023-04-07T21:27:49;97688.94;;;-145.06;100.00
59859;BME280;45734;53.648;9.566;2023-04-07T21:32:51;97791.31;;;-145.06;100.00
59859;BME280;45734;53.648;9.566;2023-04-07T21:37:51;97748.31;;;-145.06;100.00
59859;BME280;45734;53.648;9.566;2023-04-07T21:42:54;97742.19;;;-145.06;100.00
59859;BME280;45734;53.648;9.566;2023-04-07T21:47:54;97793.38;;;-145.06;100.00
59859;BME280;45734;53.648;9.566;2023-04-07T21:52:55;97793.38;;;-145.06;100.00
59859;BME280;45734;53.648;9.566;2023-04-07T21:57:56;97811.78;;;-145.06;100.00
59859;BME280;45734;53.648;9.566;2023-04-07T22:02:57;97844.56;;;-145.06;100.00
59859;BME280;45734;53.648;9.566;2023-04-07T22:07:57;97830.22;;;-145.06;100.00
59859;BME280;45734;53.648;9.566;2023-04-07T22:12:58;97836.38;;;-145.06;100.00
59859;BME280;45734;53.648;9.566;2023-04-07T22:17:58;97860.94;;;-145.06;100.00
59859;BME280;45734;53.648;9.566;2023-04-07T22:22:59;97850.69;;;-145.06;100.00
59859;BME280;45734;53.648;9.566;2023-04-07T22:27:59;97848.66;;;-145.06;100.00
59859;BME280;45734;53.648;9.566;2023-04-07T22:32:59;97869.13;;;-145.06;100.00
59859;BME280;45734;53.648;9.566;2023-04-07T22:38:00;97881.41;;;-145.06;100.00
59859;BME280;45734;53.648;9.566;2023-04-07T22:43:00;97885.50;;;-145.06;100.00
59859;BME280;45734;53.648;9.566;2023-04-07T22:48:01;97883.47;;;-145.06;100.00
59859;BME280;45734;53.648;9.566;2023-04-07T22:53:01;97905.97;;;-145.06;100.00
59859;BME280;45734;53.648;9.566;2023-04-07T22:58:01;97926.44;;;-145.06;100.00
59859;BME280;45734;53.648;9.566;2023-04-07T23:03:02;97869.13;;;-145.06;100.00
59859;BME280;45734;53.648;9.566;2023-04-07T23:08:02;97918.25;;;-145.06;100.00
59859;BME280;45734;53.648;9.566;2023-04-07T23:13:02;97877.31;;;-145.06;100.00
59859;BME280;45734;53.648;9.566;2023-04-07T23:18:03;97873.22;;;-145.06;100.00
59859;BME280;45734;53.648;9.566;2023-04-07T23:23:03;97908.03;;;-145.06;100.00
59859;BME280;45734;53.648;9.566;2023-04-07T23:28:04;97918.25;;;-145.06;100.00
59859;BME280;45734;53.648;9.566;2023-04-07T23:33:04;97889.59;;;-145.06;100.00
59859;BME280;45734;53.648;9.566;2023-04-07T23:38:04;97910.06;;;-145.06;100.00
59859;BME280;45734;53.648;9.566;2023-04-07T23:43:07;97926.44;;;-145.06;100.00
59859;BME280;45734;53.648;9.566;2023-04-07T23:48:08;97877.31;;;-145.06;100.00
59859;BME280;45734;53.648;9.566;2023-04-07T23:53:08;97901.88;;;-145.06;100.00
59859;BME280;45734;53.648;9.566;2023-04-07T23:58:08;97877.31;;;-145.06;100.00
